South Windham, Vermont
Current Conditions -  °F | °C
As of 1:54 AM on Sunday 23 Nov 2014 (Local Time) from KVSF Reporting Station
Overcast Overcast  
Wind Chill: 35°   Ceiling: 2500
Heat Index: 39°   Visibility: 10mi
Dew Point: 26°   Wind: 6mph
Humidity: 60%   Direction: 190°S
Pressure: 30.02"   Gusts: NA
Location:  43.1371°N, 72.7155°W
Report Text: KVSF 230654Z AUTO 19005KT 10SM OVC025 04/M03 A3002 RMK AO2 SLP170 T00391033
Loading
Personal Weather Stations






























Interactive Weather Map New forecast layout! Learn more

10-Day Weather Forecast

Advertisements
Track Severe Weather on mobile